aviador You're here:

LFPG Decoded Metar

PARIS CHARLES DE GAULLE in FRANCE
Report Time2017-08-23 04:00:00
UTC Time2017-08-23 04:20:03
Flight Rules vfr VFR
Wind090° at 03 kt
W.Decomp.*RWY 09: 3.0 kt HW 0.1 kt RCW
RWY 08: 2.9 kt HW 0.6 kt RCW
W.Rank090° ranks 36
Current wind is below 090° avg. (6.5)
Visibility9999 m
Phenomena:N/A
Clouds:N/A
Expected CloudBase > 2,000 ft AGL from Temp-Dew spread
CeilingNone
Temp19°C (ISA +5)
Dew Point14°C (73% RH)
QNH1013 hPa
Density Alt1,125 ft
Elevation358 ft
Report Wrong Elevation
Raw Report
LFPG 230400Z 09003KT 070V140 CAVOK 19/14 Q1013 NOSIG=

Extra information for LFPG:More info

Metar Taf Metar & Taf Last 4 Metars F.Rules Stats Wind Profile Meteogram Temp Stats Airport Information Weather charts Add Link Nearby VenuesMetar ALERT Operation Metar Decoded Social comments